ADDS METAR Data INFO
IDs: Format: Raw Decoded Include TAF

Data at: 0141 UTC 26 Feb 2018

KSTS 260053Z 25011KT 10SM CLR 16/M01 A3018 RMK AO2 SLP213 T01561006
KSTS 252353Z 30008KT 10SM CLR 17/M05 A3020 RMK AO2 SLP219 T01721050 10189 20094 56025
KSTS 252253Z 35013KT 10SM CLR 18/M06 A3022 RMK AO2 SLP227 T01831056
KSTS 252153Z 35008KT 10SM CLR 18/M06 A3024 RMK AO2 SLP233 T01831056
KSTS 252053Z COR 00000KT 10SM CLR 16/M01 A3027 RMK AO2 SLP244 T01611011 58024
KSTS 251953Z VRB03KT 10SM CLR 14/01 A3031 RMK AO2 SLP256 T01390011
KSTS 251853Z VRB03KT 10SM FEW200 12/01 A3033 RMK AO2 SLP263 T01170011
KSTS 251753Z VRB04KT 10SM CLR 11/01 A3034 RMK AO2 SLP269 T01060006 10106 20000 50002
KSTS 251653Z VRB05KT 10SM CLR 08/02 A3035 RMK AO2 SLP272 T00780022
KSTS 251553Z 29003KT 10SM CLR 03/01 A3035 RMK AO2 SLP272 T00280011
KSTS 251453Z 01004KT 10SM CLR 01/M01 A3034 RMK AO2 SLP267 T00111006 53003
KSTS 251353Z AUTO 03006KT 10SM CLR 02/01 A3033 RMK AO2 SLP266 T00220006
KSTS 251253Z AUTO 03007KT 10SM CLR 03/01 A3033 RMK AO2 SLP264 T00280006
KSTS 251153Z AUTO 02007KT 10SM CLR 03/01 A3033 RMK AO2 SLP264 70001 T00330011 10067 20033 57002
KSTS 251053Z AUTO 36008KT 10SM CLR 04/01 A3032 RMK AO2 SLP262 T00440011
KSTS 250953Z AUTO 01009KT 10SM CLR 05/02 A3033 RMK AO2 SLP266 T00500017
KSTS 250853Z AUTO 34009KT 10SM CLR 06/02 A3033 RMK AO2 SLP265 T00610022 53002
KSTS 250753Z AUTO 35009KT 10SM CLR 06/02 A3033 RMK AO2 SLP263 T00610022 401441028
KSTS 250653Z AUTO 34004KT 10SM CLR 06/03 A3033 RMK AO2 SLP263 T00610028
KSTS 250553Z AUTO 33007KT 10SM CLR 06/03 A3032 RMK AO2 SLP263 T00610028 10133 20056 51009
KSTS 250453Z AUTO 31006KT 10SM CLR 06/02 A3032 RMK AO2 SLP261 T00560022
KSTS 250353Z AUTO 31010KT 10SM CLR 07/03 A3031 RMK AO2 SLP257 T00720028
KSTS 250253Z 34005KT 10SM CLR 08/03 A3030 RMK AO2 SLP254 T00830028 53003
KSTS 250153Z 33010KT 10SM SCT045 10/03 A3029 RMK AO2 SLP251 T01000028
KSTS 250053Z 30010KT 10SM SCT050 12/02 A3028 RMK AO2 SLP249 T01220022
KSTS 242353Z 31013KT 10SM FEW050 SCT060 13/02 A3029 RMK AO2 SLP252 60001 T01330017 10144 20050 56018
KSTS 242253Z 30009KT 10SM FEW040 BKN060 14/03 A3030 RMK AO2 RAE49 SLP256 P0000 T01390028
KSTS 242153Z COR 32010KT 10SM BKN036 BKN070 13/06 A3032 RMK AO2 WSHFT 2051 SLP263 P0001 T01330056
KSTS 242053Z COR 30011G17KT 10SM -RA BKN031 BKN200 13/05 A3034 RMK AO2 RAB53 SLP270 P0000 60000 T01280050 56024
KSTS 241953Z COR 29003KT 10SM BKN050 BKN200 12/03 A3036 RMK AO2 SLP276 T01220028
KSTS 241853Z 00000KT 10SM FEW050 SCT200 11/02 A3039 RMK AO2 SLP286 T01110017
KSTS 241753Z 00000KT 10SM FEW050 SCT200 05/00 A3041 RMK AO2 SLP294 T00500000 10050 21028 50007
KSTS 241653Z 00000KT 10SM FEW050 SCT200 01/00 A3042 RMK AO2 SLP295 T00110000
KSTS 241553Z COR 28003KT 10SM CLR M02/M02 A3040 RMK AO2 SLP290 T10171022
KSTS 241453Z 00000KT 10SM FEW250 M03/M03 A3039 RMK AO2 SLP287 T10281033 53004
KSTS 241353Z AUTO 00000KT 9SM CLR M02/M03 A3038 RMK AO2 SLP282 T10221033